VTST

Trang Airport

Thailand
TAF VTST 231700Z 2318/2418 VRB02KT 8000 FEW020 BECMG 2318/2320 5000 BR BECMG 2400/2402 12005KT 9999 NSW BECMG 2402/2404 23008KT TEMPO 2408/2412 VRB10G20KT 5000 TSRA FEW018CB SCT020 BKN100
Issued Valid From Valid To
Apr-23 @ 17:00 UTC
(6 hours ago)
Apr-23 @ 18:00 UTC
(5 hours ago)
Apr-24 @ 18:00 UTC
(in 19 hours)
Apr-23 @ 18:00 to Apr-24 @ 18:00
TAF VTST 231700Z 2318/2418 VRB02KT 8000 FEW020
Wind Visibility Clouds
Variable at 2 knots 7,998 meters
  • Few at 2,000' AGL
Becoming Apr-23 @ 18:00 to Apr-24 @ 00:00
BECMG 2318/2320 5000 BR
Wind Visibility Clouds Conditions
Variable at 2 knots 5,005 meters
  • Few at 2,000' AGL
  • Mist
Becoming Apr-24 @ 00:00 to Apr-24 @ 02:00
BECMG 2400/2402 12005KT 9999 NSW
Wind Visibility Clouds Conditions
120° at 5 knots 10,000+ meters
  • Few at 2,000' AGL
Becoming Apr-24 @ 02:00 to Apr-24 @ 18:00
BECMG 2402/2404 23008KT
Wind Visibility Clouds Conditions
230° at 8 knots 10,000+ meters
  • Few at 2,000' AGL
Temporary Apr-24 @ 08:00 to Apr-24 @ 12:00
TEMPO 2408/2412 VRB10G20KT 5000 TSRA FEW018CB SCT020 BKN100
Wind Visibility Clouds Conditions
Variable at 10 knots
 Gusting to 20 knots
5,005 meters
  • Few at 1,800' AGL
  • Scattered at 2,000' AGL
  • Broken at 10,000' AGL
  • Thunderstorm
  • Rain
TAF VTST 231700Z 2318/2418 VRB02KT 8000 FEW020 BECMG 2318/2320 5000 BR BECMG 2400/2402 12005KT 9999 NSW BECMG 2402/2404 23008KT TEMPO 2408/2412 VRB10G20KT 5000 TSRA FEW018CB SCT020 BKN100
Issued Apr-23 @ 17:00 UTC
(6 hours ago)
Valid From Apr-23 @ 18:00 UTC
(5 hours ago)
Valid To Apr-24 @ 18:00 UTC
(in 19 hours)
Apr-23 @ 18:00 - Apr-24 @ 18:00
Wind Visibility
Variable at 2 knots 7,998 meters
Clouds
  • Few at 2,000' AGL
Becoming Apr-23 @ 18:00 - Apr-24 @ 00:00
Wind Visibility
Variable at 2 knots 5,005 meters
Clouds
  • Few at 2,000' AGL
Conditions
  • Mist
Becoming Apr-24 @ 00:00 - Apr-24 @ 02:00
Wind Visibility
120° at 5 knots 10,000+ meters
Clouds
  • Few at 2,000' AGL
Conditions
Becoming Apr-24 @ 02:00 - Apr-24 @ 18:00
Wind Visibility
230° at 8 knots 10,000+ meters
Clouds
  • Few at 2,000' AGL
Conditions
Temporary Apr-24 @ 08:00 - Apr-24 @ 12:00
Wind Visibility
Variable at 10 knots
 Gusting to 20 knots
5,005 meters
Clouds
  • Few at 1,800' AGL
  • Scattered at 2,000' AGL
  • Broken at 10,000' AGL
Conditions
  • Thunderstorm
  • Rain